Date,TemperatureHighF,TemperatureAvgF,TemperatureLowF,DewpointHighF,DewpointAvgF,DewpointLowF,HumidityHigh,HumidityAvg,HumidityLow,PressureMaxIn,PressureMinIn,WindSpeedMaxMPH,WindSpeedAvgMPH,GustSpeedMaxMPH,PrecipitationSumIn
2013-1-1,33,19,7,-100,-100,-100,0,0,100,0.00,40.00,0,-999,0,0.00
2013-1-2,40,26,9,-100,-100,-100,0,0,100,0.00,40.00,0,-999,0,0.00
2013-1-3,39,24,5,-100,-100,-100,0,0,100,0.00,40.00,0,-999,0,0.00
2013-1-4,40,18,3,-100,-100,-100,0,0,100,0.00,40.00,0,-999,0,0.00
2013-1-5,44,24,1,-100,-100,-100,0,0,100,0.00,40.00,0,-999,0,0.00
2013-1-6,46,27,15,-100,-100,-100,0,0,100,0.00,40.00,0,-999,0,0.00
2013-1-7,46,26,12,-100,-100,-100,0,0,100,0.00,40.00,0,-999,0,0.00
2013-1-8,52,25,9,-100,-100,-100,0,0,100,0.00,40.00,0,-999,0,0.00
2013-1-9,51,32,18,-100,-100,-100,0,0,100,0.00,40.00,0,-999,0,0.00
2013-1-10,39,37,28,-100,-100,-100,0,0,100,0.00,40.00,0,-999,0,0.00
2013-1-11,40,36,23,-100,-100,-100,0,0,100,0.00,40.00,0,-999,0,0.00
2013-1-12,27,19,11,-100,-100,-100,0,0,100,0.00,40.00,0,-999,0,0.00
2013-1-13,28,13,2,-100,-100,-100,0,0,100,0.00,40.00,0,-999,0,0.00
2013-1-14,34,15,1,-100,-100,-100,0,0,100,0.00,40.00,0,-999,0,0.00
2013-1-15,34,21,10,-100,-100,-100,0,0,100,0.00,40.00,0,-999,0,0.00
2013-1-16,54,39,24,-100,-100,-100,0,0,100,0.00,40.00,0,-999,0,0.00
2013-1-17,54,36,27,-100,-100,-100,0,0,100,0.00,40.00,0,-999,0,0.00
2013-1-18,59,39,27,-100,-100,-100,0,0,100,0.00,40.00,0,-999,0,0.00
2013-1-19,62,41,30,-100,-100,-100,0,0,100,0.00,40.00,0,-999,0,0.00
2013-1-20,47,31,21,-100,-100,-100,0,0,100,0.00,40.00,0,-999,0,0.00
2013-1-21,34,24,17,-100,-100,-100,0,0,100,0.00,40.00,0,-999,0,0.00
2013-1-22,39,26,15,-100,-100,-100,0,0,100,0.00,40.00,0,-999,0,0.00
2013-1-23,45,29,17,-100,-100,-100,0,0,100,0.00,40.00,0,-999,0,0.00
2013-1-24,35,23,13,-100,-100,-100,0,0,100,0.00,40.00,0,-999,0,0.00
2013-1-25,59,37,23,-100,-100,-100,0,0,100,0.00,40.00,0,-999,0,0.00
2013-1-26,65,42,25,-100,-100,-100,0,0,100,0.00,40.00,0,-999,0,0.00
2013-1-27,57,43,32,-100,-100,-100,0,0,100,0.00,40.00,0,-999,0,0.00
2013-1-28,42,36,30,-100,-100,-100,0,0,100,0.00,40.00,0,-999,0,0.00
2013-1-29,39,36,31,-100,-100,-100,0,0,100,0.00,40.00,0,-999,0,0.00
2013-1-30,41,30,22,-100,-100,-100,0,0,100,0.00,40.00,0,-999,0,0.00
2013-1-31,30,26,21,-100,-100,-100,0,0,100,0.00,40.00,0,-999,0,0.00
2013-2-1,60,36,20,-100,-100,-100,0,0,100,0.00,40.00,0,-999,0,0.00
2013-2-2,59,42,30,-100,-100,-100,0,0,100,0.00,40.00,0,-999,0,0.00
2013-2-3,59,37,21,-100,-100,-100,0,0,100,0.00,40.00,0,-999,0,0.00
2013-2-4,63,39,25,-100,-100,-100,0,0,100,0.00,40.00,0,-999,0,0.00
2013-2-5,65,41,25,-100,-100,-100,0,0,100,0.00,40.00,0,-999,0,0.00
2013-2-6,68,47,32,-100,-100,-100,0,0,100,0.00,40.00,0,-999,0,0.00
2013-2-7,63,44,24,-100,-100,-100,0,0,100,0.00,40.00,0,-999,0,0.00
2013-2-8,59,41,22,-100,-100,-100,0,0,100,0.00,40.00,0,-999,0,0.00
2013-2-9,61,45,34,-100,-100,-100,0,0,100,0.00,40.00,0,-999,0,0.00
2013-2-10,43,36,29,-100,-100,-100,0,0,100,0.00,40.00,0,-999,0,0.00
2013-2-11,45,30,21,-100,-100,-100,0,0,100,0.00,40.00,0,-999,0,0.00
2013-2-12,50,32,18,-100,-100,-100,0,0,100,0.00,40.00,0,-999,0,0.00
2013-2-13,58,40,25,-100,-100,-100,0,0,100,0.00,40.00,0,-999,0,0.00
2013-2-14,46,36,20,-100,-100,-100,0,0,100,0.00,40.00,0,-999,0,0.00
2013-2-15,44,26,16,-100,-100,-100,0,0,100,0.00,40.00,0,-999,0,0.00
2013-2-16,64,38,18,-100,-100,-100,0,0,100,0.00,40.00,0,-999,0,0.00
2013-2-17,73,44,25,-100,-100,-100,0,0,100,0.00,40.00,0,-999,0,0.00
2013-2-18,49,41,26,-100,-100,-100,0,0,100,0.00,40.00,0,-999,0,0.00
2013-2-19,43,30,15,-100,-100,-100,0,0,100,0.00,40.00,0,-999,0,0.00
2013-2-20,26,22,18,-100,-100,-100,0,0,100,0.00,40.00,0,-999,0,0.00
2013-2-21,24,21,19,-100,-100,-100,0,0,100,0.00,40.00,0,-999,0,0.00
2013-2-22,35,15,4,-100,-100,-100,0,0,100,0.00,40.00,0,-999,0,0.00
2013-2-23,50,21,-1,-100,-100,-100,0,0,100,0.00,40.00,0,-999,0,0.00
2013-2-24,37,26,16,-100,-100,-100,0,0,100,0.00,40.00,0,-999,0,0.00
2013-2-25,41,33,17,-100,-100,-100,0,0,100,0.00,40.00,0,-999,0,0.00
2013-2-26,47,20,4,-100,-100,-100,0,0,100,0.00,40.00,0,-999,0,0.00
2013-2-27,42,34,23,-100,-100,-100,0,0,100,0.00,40.00,0,-999,0,0.00
2013-2-28,49,32,18,-100,-100,-100,0,0,100,0.00,40.00,0,-999,0,0.00
2013-3-1,48,33,24,-100,-100,-100,0,0,100,0.00,40.00,0,-999,0,0.00
2013-3-2,61,39,19,-100,-100,-100,0,0,100,0.00,40.00,0,-999,0,0.00
2013-3-3,62,46,34,-100,-100,-100,0,0,100,0.00,40.00,0,-999,0,0.00
2013-3-4,49,41,31,-100,-100,-100,0,0,100,0.00,40.00,0,-999,0,0.00
2013-3-5,49,35,26,-100,-100,-100,0,0,100,0.00,40.00,0,-999,0,0.00
2013-3-6,47,34,23,-100,-100,-100,0,0,100,0.00,40.00,0,-999,0,0.00
2013-3-7,53,39,28,-100,-100,-100,0,0,100,0.00,40.00,0,-999,0,0.00
2013-3-8,61,45,33,-100,-100,-100,0,0,100,0.00,40.00,0,-999,0,0.00
2013-3-9,60,48,35,-100,-100,-100,0,0,100,0.00,40.00,0,-999,0,0.00
2013-3-10,38,32,21,-100,-100,-100,0,0,100,0.00,40.00,0,-999,0,0.00
2013-3-11,62,38,18,-100,-100,-100,0,0,100,0.00,40.00,0,-999,0,0.00
2013-3-12,52,40,26,-100,-100,-100,0,0,100,0.00,40.00,0,-999,0,0.00
2013-3-13,72,45,24,-100,-100,-100,0,0,100,0.00,40.00,0,-999,0,0.00
2013-3-14,82,57,38,-100,-100,-100,0,0,100,0.00,40.00,0,-999,0,0.00
2013-3-15,86,62,41,-100,-100,-100,0,0,100,0.00,40.00,0,-999,0,0.00
2013-3-16,56,44,35,-100,-100,-100,0,0,100,0.00,40.00,0,-999,0,0.00
2013-3-17,43,36,32,-100,-100,-100,0,0,100,0.00,40.00,0,-999,0,0.00
2013-3-18,56,43,26,-100,-100,-100,0,0,100,0.00,40.00,0,-999,0,0.00
2013-3-19,56,41,27,-100,-100,-100,0,0,100,0.00,40.00,0,-999,0,0.00
2013-3-20,54,36,16,-100,-100,-100,0,0,100,0.00,40.00,0,-999,0,0.00
2013-3-21,52,41,32,-100,-100,-100,0,0,100,0.00,40.00,0,-999,0,0.00
2013-3-22,54,41,27,-100,-100,-100,0,0,100,0.00,40.00,0,-999,0,0.00
2013-3-23,38,33,29,-100,-100,-100,0,0,100,0.00,40.00,0,-999,0,0.00
2013-3-24,39,28,14,-100,-100,-100,0,0,100,0.00,40.00,0,-999,0,0.00
2013-3-25,42,29,18,-100,-100,-100,0,0,100,0.00,40.00,0,-999,0,0.00
2013-3-26,55,35,14,-100,-100,-100,0,0,100,0.00,40.00,0,-999,0,0.00
2013-3-27,64,46,33,-100,-100,-100,0,0,100,0.00,40.00,0,-999,0,0.00
2013-3-28,73,51,28,-100,-100,-100,0,0,100,0.00,40.00,0,-999,0,0.00
2013-3-29,76,56,34,-100,-100,-100,0,0,100,0.00,40.00,0,-999,0,0.00
2013-3-30,72,57,42,-100,-100,-100,0,0,100,0.00,40.00,0,-999,0,0.00
2013-3-31,75,54,32,-100,-100,-100,0,0,100,0.00,40.00,0,-999,0,0.00
2013-4-1,55,44,35,-100,-100,-100,0,0,100,0.00,40.00,0,-999,0,0.00
2013-4-2,61,46,29,-100,-100,-100,0,0,100,0.00,40.00,0,-999,0,0.00
2013-4-3,60,45,31,-100,-100,-100,0,0,100,0.00,40.00,0,-999,0,0.00
2013-4-4,71,51,26,-100,-100,-100,0,0,100,0.00,40.00,0,-999,0,0.00
2013-4-5,85,62,41,-100,-100,-100,0,0,100,0.00,40.00,0,-999,0,0.00
2013-4-6,78,65,43,-100,-100,-100,0,0,100,0.00,40.00,0,-999,0,0.00
2013-4-7,68,54,41,-100,-100,-100,0,0,100,0.00,40.00,0,-999,0,0.00
2013-4-8,69,49,40,-100,-100,-100,0,0,100,0.00,40.00,0,-999,0,0.00
2013-4-9,51,32,24,-100,-100,-100,0,0,100,0.00,40.00,0,-999,0,0.00
2013-4-10,33,29,24,-100,-100,-100,0,0,100,0.00,40.00,0,-999,0,0.00
2013-4-11,47,35,26,-100,-100,-100,0,0,100,0.00,40.00,0,-999,0,0.00
2013-4-12,62,43,29,-100,-100,-100,0,0,100,0.00,40.00,0,-999,0,0.00
2013-4-13,74,51,30,-100,-100,-100,0,0,100,0.00,40.00,0,-999,0,0.00
2013-4-14,60,55,39,-100,-100,-100,0,0,100,0.00,40.00,0,-999,0,0.00
2013-4-15,54,44,37,-100,-100,-100,0,0,100,0.00,40.00,0,-999,0,0.00
2013-4-16,48,42,36,-100,-100,-100,0,0,100,0.00,40.00,0,-999,0,0.00
2013-4-17,44,39,32,-100,-100,-100,0,0,100,0.00,40.00,0,-999,0,0.00
2013-4-18,39,34,29,-100,-100,-100,0,0,100,0.00,40.00,0,-999,0,0.00
2013-4-19,61,44,23,-100,-100,-100,0,0,100,0.00,40.00,0,-999,0,0.00
2013-4-20,62,47,36,-100,-100,-100,0,0,100,0.00,40.00,0,-999,0,0.00
2013-4-21,77,55,33,-100,-100,-100,0,0,100,0.00,40.00,0,-999,0,0.00
2013-4-22,55,42,34,-100,-100,-100,0,0,100,0.00,40.00,0,-999,0,0.00
2013-4-23,48,37,31,-100,-100,-100,0,0,100,0.00,40.00,0,-999,0,0.00
2013-4-24,65,44,26,-100,-100,-100,0,0,100,0.00,40.00,0,-999,0,0.00
2013-4-25,79,54,28,-100,-100,-100,0,0,100,0.00,40.00,0,-999,0,0.00
2013-4-26,81,63,43,-100,-100,-100,0,0,100,0.00,40.00,0,-999,0,0.00
2013-4-27,88,64,38,-100,-100,-100,0,0,100,0.00,40.00,0,-999,0,0.00
2013-4-28,92,69,43,-100,-100,-100,0,0,100,0.00,40.00,0,-999,0,0.00
2013-4-29,88,69,52,-100,-100,-100,0,0,100,0.00,40.00,0,-999,0,0.00
2013-4-30,73,64,54,-100,-100,-100,0,0,100,0.00,40.00,0,-999,0,0.00
2013-5-1,60,42,36,-100,-100,-100,0,0,100,0.00,40.00,0,-999,0,0.00
2013-5-2,58,46,36,-100,-100,-100,0,0,100,0.00,40.00,0,-999,0,0.00
2013-5-3,65,47,28,-100,-100,-100,0,0,100,0.00,40.00,0,-999,0,0.00
2013-5-4,65,49,31,-100,-100,-100,0,0,100,0.00,40.00,0,-999,0,0.00
2013-5-5,70,51,28,-100,-100,-100,0,0,100,0.00,40.00,0,-999,0,0.00
2013-5-6,75,57,35,-100,-100,-100,0,0,100,0.00,40.00,0,-999,0,0.00
2013-5-7,71,61,54,-100,-100,-100,0,0,100,0.00,40.00,0,-999,0,0.00
2013-5-8,80,65,53,-100,-100,-100,0,0,100,0.00,40.00,0,-999,0,0.00
2013-5-9,70,59,50,-100,-100,-100,0,0,100,0.00,40.00,0,-999,0,0.00
2013-5-10,82,61,43,-100,-100,-100,0,0,100,0.00,40.00,0,-999,0,0.00
2013-5-11,74,62,52,-100,-100,-100,0,0,100,0.00,40.00,0,-999,0,0.00
2013-5-12,86,64,42,-100,-100,-100,0,0,100,0.00,40.00,0,-999,0,0.00
2013-5-13,100,76,49,-100,-100,-100,0,0,100,0.00,40.00,0,-999,0,0.00
2013-5-14,106,82,54,-100,-100,-100,0,0,100,0.00,40.00,0,-999,0,0.00
2013-5-15,89,76,66,-100,-100,-100,0,0,100,0.00,40.00,0,-999,0,0.00
2013-5-16,88,66,60,-100,-100,-100,0,0,100,0.00,40.00,0,-999,0,0.00
2013-5-17,92,73,55,-100,-100,-100,0,0,100,0.00,40.00,0,-999,0,0.00
2013-5-18,86,75,66,-100,-100,-100,0,0,100,0.00,40.00,0,-999,0,0.00
2013-5-19,83,67,61,-100,-100,-100,0,0,100,0.00,40.00,0,-999,0,0.00
2013-5-20,73,64,58,-100,-100,-100,0,0,100,0.00,40.00,0,-999,0,0.00
2013-5-21,69,61,52,-100,-100,-100,0,0,100,0.00,40.00,0,-999,0,0.00
2013-5-22,81,64,46,-100,-100,-100,0,0,100,0.00,40.00,0,-999,0,0.00
2013-5-23,74,61,49,-100,-100,-100,0,0,100,0.00,40.00,0,-999,0,0.00
2013-5-24,87,70,59,-100,-100,-100,0,0,100,0.00,40.00,0,-999,0,0.00
2013-5-25,96,79,64,-100,-100,-100,0,0,100,0.00,40.00,0,-999,0,0.00
2013-5-26,100,82,69,-100,-100,-100,0,0,100,0.00,40.00,0,-999,0,0.00
2013-5-27,84,74,64,-100,-100,-100,0,0,100,0.00,40.00,0,-999,0,0.00
2013-5-28,88,73,60,-100,-100,-100,0,0,100,0.00,40.00,0,-999,0,0.00
2013-5-29,93,72,61,-100,-100,-100,0,0,100,0.00,40.00,0,-999,0,0.00
2013-5-30,67,58,54,-100,-100,-100,0,0,100,0.00,40.00,0,-999,0,0.00
2013-5-31,83,75,61,-100,-100,-100,0,0,100,0.00,40.00,0,-999,0,0.00
2013-6-1,74,63,52,-100,-100,-100,0,0,100,0.00,40.00,0,-999,0,0.00
2013-6-2,82,63,42,-100,-100,-100,0,0,100,0.00,40.00,0,-999,0,0.00
2013-6-3,95,74,55,-100,-100,-100,0,0,100,0.00,40.00,0,-999,0,0.00
2013-6-4,79,72,63,-100,-100,-100,0,0,100,0.00,40.00,0,-999,0,0.00
2013-6-5,74,64,55,-100,-100,-100,0,0,100,0.00,40.00,0,-999,0,0.00
2013-6-6,86,63,44,-100,-100,-100,0,0,100,0.00,40.00,0,-999,0,0.00
2013-6-7,88,69,49,-100,-100,-100,0,0,100,0.00,40.00,0,-999,0,0.00
2013-6-8,85,71,57,-100,-100,-100,0,0,100,0.00,40.00,0,-999,0,0.00
2013-6-9,93,70,52,-100,-100,-100,0,0,100,0.00,40.00,0,-999,0,0.00
2013-6-10,110,78,52,-100,-100,-100,0,0,100,0.00,40.00,0,-999,0,0.00
2013-6-11,115,92,75,-100,-100,-100,0,0,100,0.00,40.00,0,-999,0,0.00
2013-6-12,102,83,68,-100,-100,-100,0,0,100,0.00,40.00,0,-999,0,0.00
2013-6-13,93,73,57,-100,-100,-100,0,0,100,0.00,40.00,0,-999,0,0.00
2013-6-14,104,82,68,-100,-100,-100,0,0,100,0.00,40.00,0,-999,0,0.00
2013-6-15,97,79,63,-100,-100,-100,0,0,100,0.00,40.00,0,-999,0,0.00
2013-6-16,95,76,64,-100,-100,-100,0,0,100,0.00,40.00,0,-999,0,0.00
2013-6-17,87,74,57,-100,-100,-100,0,0,100,0.00,40.00,0,-999,0,0.00
2013-6-18,94,76,64,-100,-100,-100,0,0,100,0.00,40.00,0,-999,0,0.00
2013-6-19,94,79,65,-100,-100,-100,0,0,100,0.00,40.00,0,-999,0,0.00
2013-6-20,100,78,72,-100,-100,-100,0,0,100,0.00,40.00,0,-999,0,0.00
2013-6-22,103,91,76,-100,-100,-100,0,0,100,0.00,40.00,0,-999,0,0.00
2013-6-23,86,75,63,-100,-100,-100,0,0,100,0.00,40.00,0,-999,0,0.00
2013-6-24,101,80,64,-100,-100,-100,0,0,100,0.00,40.00,0,-999,0,0.00
2013-6-25,101,85,70,-100,-100,-100,0,0,100,0.00,40.00,0,-999,0,0.00
2013-6-26,106,81,62,-100,-100,-100,0,0,100,0.00,40.00,0,-999,0,0.00
2013-6-27,100,82,70,-100,-100,-100,0,0,100,0.00,40.00,0,-999,0,0.00
2013-6-28,100,81,65,-100,-100,-100,0,0,100,0.00,40.00,0,-999,0,0.00
2013-6-29,93,75,63,-100,-100,-100,0,0,100,0.00,40.00,0,-999,0,0.00
2013-6-30,89,72,55,-100,-100,-100,0,0,100,0.00,40.00,0,-999,0,0.00
2013-7-1,83,71,53,-100,-100,-100,0,0,100,0.00,40.00,0,-999,0,0.00
2013-7-2,88,67,48,-100,-100,-100,0,0,100,0.00,40.00,0,-999,0,0.00
2013-7-3,96,76,53,-100,-100,-100,0,0,100,0.00,40.00,0,-999,0,0.00
2013-7-4,100,82,62,-100,-100,-100,0,0,100,0.00,40.00,0,-999,0,0.00
2013-7-5,102,87,73,-100,-100,-100,0,0,100,0.00,40.00,0,-999,0,0.00
2013-7-6,108,85,75,-100,-100,-100,0,0,100,0.00,40.00,0,-999,0,0.00
2013-7-7,100,87,73,-100,-100,-100,0,0,100,0.00,40.00,0,-999,0,0.00
2013-7-8,107,80,72,-100,-100,-100,0,0,100,0.00,40.00,0,-999,0,0.00
2013-7-9,105,86,67,-100,-100,-100,0,0,100,0.00,40.00,0,-999,0,0.00
2013-7-10,91,80,73,-100,-100,-100,0,0,100,0.00,40.00,0,-999,0,0.00
2013-7-11,97,83,70,-100,-100,-100,0,0,100,0.00,40.00,0,-999,0,0.00
2013-7-12,110,90,73,-100,-100,-100,0,0,100,0.00,40.00,0,-999,0,0.00
2013-7-13,112,90,73,-100,-100,-100,0,0,100,0.00,40.00,0,-999,0,0.00
2013-7-14,96,82,74,-100,-100,-100,0,0,100,0.00,40.00,0,-999,0,0.00
2013-7-15,94,76,64,-100,-100,-100,0,0,100,0.00,40.00,0,-999,0,0.00
2013-7-16,91,78,67,-100,-100,-100,0,0,100,0.00,40.00,0,-999,0,0.00
2013-7-17,97,80,63,-100,-100,-100,0,0,100,0.00,40.00,0,-999,0,0.00
2013-7-18,99,88,72,-100,-100,-100,0,0,100,0.00,40.00,0,-999,0,0.00
2013-7-19,96,84,69,-100,-100,-100,0,0,100,0.00,40.00,0,-999,0,0.00
2013-7-20,94,78,65,-100,-100,-100,0,0,100,0.00,40.00,0,-999,0,0.00
2013-7-21,100,79,61,-100,-100,-100,0,0,100,0.00,40.00,0,-999,0,0.00
2013-7-22,99,82,68,-100,-100,-100,0,0,100,0.00,40.00,0,-999,0,0.00
2013-7-23,95,80,71,-100,-100,-100,0,0,100,0.00,40.00,0,-999,0,0.00
2013-7-24,98,77,61,-100,-100,-100,0,0,100,0.00,40.00,0,-999,0,0.00
2013-7-25,87,74,67,-100,-100,-100,0,0,100,0.00,40.00,0,-999,0,0.00
2013-7-26,89,73,64,-100,-100,-100,0,0,100,0.00,40.00,0,-999,0,0.00
2013-7-27,71,66,61,-100,-100,-100,0,0,100,0.00,40.00,0,-999,0,0.00
2013-7-28,64,62,60,-100,-100,-100,0,0,100,0.00,40.00,0,-999,0,0.00
2013-7-29,77,68,63,-100,-100,-100,0,0,100,0.00,40.00,0,-999,0,0.00
2013-7-30,90,76,65,-100,-100,-100,0,0,100,0.00,40.00,0,-999,0,0.00
2013-7-31,89,78,64,-100,-100,-100,0,0,100,0.00,40.00,0,-999,0,0.00
2013-8-1,100,83,69,-100,-100,-100,0,0,100,0.00,40.00,0,-999,0,0.00
2013-8-2,93,79,67,-100,-100,-100,0,0,100,0.00,40.00,0,-999,0,0.00
2013-8-3,79,74,70,-100,-100,-100,0,0,100,0.00,40.00,0,-999,0,0.00
2013-8-4,90,76,68,-100,-100,-100,0,0,100,0.00,40.00,0,-999,0,0.00
2013-8-5,97,78,69,-100,-100,-100,0,0,100,0.00,40.00,0,-999,0,0.00
2013-8-6,99,82,72,-100,-100,-100,0,0,100,0.00,40.00,0,-999,0,0.00
2013-8-7,87,77,65,-100,-100,-100,0,0,100,0.00,40.00,0,-999,0,0.00
2013-8-8,83,73,66,-100,-100,-100,0,0,100,0.00,40.00,0,-999,0,0.00
2013-8-9,92,73,61,-100,-100,-100,0,0,100,0.00,40.00,0,-999,0,0.00
2013-8-10,92,75,60,-100,-100,-100,0,0,100,0.00,40.00,0,-999,0,0.00
2013-8-11,90,77,65,-100,-100,-100,0,0,100,0.00,40.00,0,-999,0,0.00
2013-8-12,87,74,63,-100,-100,-100,0,0,100,0.00,40.00,0,-999,0,0.00
2013-8-13,83,74,67,-100,-100,-100,0,0,100,0.00,40.00,0,-999,0,0.00
2013-8-14,84,72,63,-100,-100,-100,0,0,100,0.00,40.00,0,-999,0,0.00
2013-8-15,94,73,65,-100,-100,-100,0,0,100,0.00,40.00,0,-999,0,0.00
2013-8-16,84,74,68,-100,-100,-100,0,0,100,0.00,40.00,0,-999,0,0.00
2013-8-17,82,73,67,-100,-100,-100,0,0,100,0.00,40.00,0,-999,0,0.00
2013-8-18,89,75,64,-100,-100,-100,0,0,100,0.00,40.00,0,-999,0,0.00
2013-8-19,101,80,65,-100,-100,-100,0,0,100,0.00,40.00,0,-999,0,0.00
2013-8-20,102,82,65,-100,-100,-100,0,0,100,0.00,40.00,0,-999,0,0.00
2013-8-21,105,86,68,-100,-100,-100,0,0,100,0.00,40.00,0,-999,0,0.00
2013-8-22,92,81,72,-100,-100,-100,0,0,100,0.00,40.00,0,-999,0,0.00
2013-8-23,100,81,69,-100,-100,-100,0,0,100,0.00,40.00,0,-999,0,0.00
2013-8-24,103,89,72,-100,-100,-100,0,0,100,0.00,40.00,0,-999,0,0.00
2013-8-25,105,91,76,-100,-100,-100,0,0,100,0.00,40.00,0,-999,0,0.00
2013-8-26,108,91,77,-100,-100,-100,0,0,100,0.00,40.00,0,-999,0,0.00
2013-8-27,107,80,69,-100,-100,-100,0,0,100,0.00,40.00,0,-999,0,0.00
2013-8-28,104,93,82,-100,-100,-100,0,0,100,0.00,40.00,0,-999,0,0.00
2013-8-29,112,85,67,-100,-100,-100,0,0,100,0.00,40.00,0,-999,0,0.00
2013-8-30,104,85,64,-100,-100,-100,0,0,100,0.00,40.00,0,-999,0,0.00
2013-8-31,99,81,68,-100,-100,-100,0,0,100,0.00,40.00,0,-999,0,0.00
2013-9-1,91,79,66,-100,-100,-100,0,0,100,0.00,40.00,0,-999,0,0.00
2013-9-2,96,74,56,-100,-100,-100,0,0,100,0.00,40.00,0,-999,0,0.00
2013-9-3,101,82,62,-100,-100,-100,0,0,100,0.00,40.00,0,-999,0,0.00
2013-9-4,105,85,65,-100,-100,-100,0,0,100,0.00,40.00,0,-999,0,0.00
2013-9-5,101,83,69,-100,-100,-100,0,0,100,0.00,40.00,0,-999,0,0.00
2013-9-6,110,87,63,-100,-100,-100,0,0,100,0.00,40.00,0,-999,0,0.00
2013-9-7,112,86,62,-100,-100,-100,0,0,100,0.00,40.00,0,-999,0,0.00
2013-9-8,107,86,63,-100,-100,-100,0,0,100,0.00,40.00,0,-999,0,0.00
2013-9-9,104,88,76,-100,-100,-100,0,0,100,0.00,40.00,0,-999,0,0.00
2013-9-10,99,82,70,-100,-100,-100,0,0,100,0.00,40.00,0,-999,0,0.00
2013-9-11,85,74,69,-100,-100,-100,0,0,100,0.00,40.00,0,-999,0,0.00
2013-9-12,77,71,68,-100,-100,-100,0,0,100,0.00,40.00,0,-999,0,0.00
2013-9-13,71,66,60,-100,-100,-100,0,0,100,0.00,40.00,0,-999,0,0.00
2013-9-14,85,71,62,-100,-100,-100,0,0,100,0.00,40.00,0,-999,0,0.00
2013-9-15,73,67,64,-100,-100,-100,0,0,100,0.00,40.00,0,-999,0,0.00
2013-9-16,65,61,59,-100,-100,-100,0,0,100,0.00,40.00,0,-999,0,0.00
2013-9-17,92,71,60,-100,-100,-100,0,0,100,0.00,40.00,0,-999,0,0.00
2013-9-18,83,73,66,-100,-100,-100,0,0,100,0.00,40.00,0,-999,0,0.00
2013-9-19,83,68,52,-100,-100,-100,0,0,100,0.00,40.00,0,-999,0,0.00
2013-9-20,83,57,45,-100,-100,-100,0,0,100,0.00,40.00,0,-999,0,0.00
2013-9-21,90,68,46,-100,-100,-100,0,0,100,0.00,40.00,0,-999,0,0.00
2013-9-22,93,74,57,-100,-100,-100,0,0,100,0.00,40.00,0,-999,0,0.00
2013-9-23,74,67,61,-100,-100,-100,0,0,100,0.00,40.00,0,-999,0,0.00
2013-9-24,85,65,51,-100,-100,-100,0,0,100,0.00,40.00,0,-999,0,0.00
2013-9-25,89,70,46,-100,-100,-100,0,0,100,0.00,40.00,0,-999,0,0.00
2013-9-26,96,75,59,-100,-100,-100,0,0,100,0.00,40.00,0,-999,0,0.00
2013-9-27,78,70,54,-100,-100,-100,0,0,100,0.00,40.00,0,-999,0,0.00
2013-9-28,75,57,45,-100,-100,-100,0,0,100,0.00,40.00,0,-999,0,0.00
2013-9-29,85,60,39,-100,-100,-100,0,0,100,0.00,40.00,0,-999,0,0.00
2013-9-30,91,68,47,-100,-100,-100,0,0,100,0.00,40.00,0,-999,0,0.00
2013-10-1,78,67,58,-100,-100,-100,0,0,100,0.00,40.00,0,-999,0,0.00
2013-10-2,84,65,52,-100,-100,-100,0,0,100,0.00,40.00,0,-999,0,0.00
2013-10-3,73,66,61,-100,-100,-100,0,0,100,0.00,40.00,0,-999,0,0.00
2013-10-4,64,57,43,-100,-100,-100,0,0,100,0.00,40.00,0,-999,0,0.00
2013-10-5,56,47,40,-100,-100,-100,0,0,100,0.00,40.00,0,-999,0,0.00
2013-10-6,74,55,41,-100,-100,-100,0,0,100,0.00,40.00,0,-999,0,0.00
2013-10-7,88,60,38,-100,-100,-100,0,0,100,0.00,40.00,0,-999,0,0.00
2013-10-8,88,68,50,-100,-100,-100,0,0,100,0.00,40.00,0,-999,0,0.00
2013-10-9,86,66,52,-100,-100,-100,0,0,100,0.00,40.00,0,-999,0,0.00
2013-10-10,88,67,49,-100,-100,-100,0,0,100,0.00,40.00,0,-999,0,0.00
2013-10-11,68,59,49,-100,-100,-100,0,0,100,0.00,40.00,0,-999,0,0.00
2013-10-12,66,54,47,-100,-100,-100,0,0,100,0.00,40.00,0,-999,0,0.00
2013-10-13,68,55,37,-100,-100,-100,0,0,100,0.00,40.00,0,-999,0,0.00
2013-10-14,73,61,48,-100,-100,-100,0,0,100,0.00,40.00,0,-999,0,0.00
2013-10-15,55,47,40,-100,-100,-100,0,0,100,0.00,40.00,0,-999,0,0.00
2013-10-16,62,41,32,-100,-100,-100,0,0,100,0.00,40.00,0,-999,0,0.00
2013-10-17,61,44,31,-100,-100,-100,0,0,100,0.00,40.00,0,-999,0,0.00
2013-10-18,54,43,35,-100,-100,-100,0,0,100,0.00,40.00,0,-999,0,0.00
2013-10-19,71,47,31,-100,-100,-100,0,0,100,0.00,40.00,0,-999,0,0.00
2013-10-20,65,49,37,-100,-100,-100,0,0,100,0.00,40.00,0,-999,0,0.00
2013-10-21,67,46,32,-100,-100,-100,0,0,100,0.00,40.00,0,-999,0,0.00
2013-10-22,70,56,44,-100,-100,-100,0,0,100,0.00,40.00,0,-999,0,0.00
2013-10-23,76,52,39,-100,-100,-100,0,0,100,0.00,40.00,0,-999,0,0.00
2013-10-24,54,44,35,-100,-100,-100,0,0,100,0.00,40.00,0,-999,0,0.00
2013-10-25,67,46,30,-100,-100,-100,0,0,100,0.00,40.00,0,-999,0,0.00
2013-10-26,69,43,36,-100,-100,-100,0,0,100,0.00,40.00,0,-999,0,0.00
2013-10-27,85,51,33,-100,-100,-100,0,0,100,0.00,40.00,0,-999,0,0.00
2013-10-28,59,47,42,-100,-100,-100,0,0,100,0.00,40.00,0,-999,0,0.00
2013-10-29,44,43,41,-100,-100,-100,0,0,100,0.00,40.00,0,-999,0,0.00
2013-10-30,59,43,33,-100,-100,-100,0,0,100,0.00,40.00,0,-999,0,0.00
2013-10-31,66,46,32,-100,-100,-100,0,0,100,0.00,40.00,0,-999,0,0.00
2013-11-1,64,50,35,-100,-100,-100,0,0,100,0.00,40.00,0,-999,0,0.00
2013-11-2,67,44,29,-100,-100,-100,0,0,100,0.00,40.00,0,-999,0,0.00
2013-11-3,76,49,38,-100,-100,-100,0,0,100,0.00,40.00,0,-999,0,0.00
2013-11-4,58,47,36,-100,-100,-100,0,0,100,0.00,40.00,0,-999,0,0.00
2013-11-5,42,39,33,-100,-100,-100,0,0,100,0.00,40.00,0,-999,0,0.00
2013-11-6,56,37,24,-100,-100,-100,0,0,100,0.00,40.00,0,-999,0,0.00
2013-11-7,58,41,29,-100,-100,-100,0,0,100,0.00,40.00,0,-999,0,0.00
2013-11-8,73,50,34,-100,-100,-100,0,0,100,0.00,40.00,0,-999,0,0.00
2013-11-9,64,45,32,-100,-100,-100,0,0,100,0.00,40.00,0,-999,0,0.00
2013-11-10,63,43,28,-100,-100,-100,0,0,100,0.00,40.00,0,-999,0,0.00
2013-11-11,39,35,30,-100,-100,-100,0,0,100,0.00,40.00,0,-999,0,0.00
2013-11-12,48,30,17,-100,-100,-100,0,0,100,0.00,40.00,0,-999,0,0.00
2013-11-13,76,40,23,-100,-100,-100,0,0,100,0.00,40.00,0,-999,0,0.00
2013-11-14,66,46,31,-100,-100,-100,0,0,100,0.00,40.00,0,-999,0,0.00
2013-11-15,68,46,30,-100,-100,-100,0,0,100,0.00,40.00,0,-999,0,0.00
2013-11-16,63,44,33,-100,-100,-100,0,0,100,0.00,40.00,0,-999,0,0.00
2013-11-17,57,46,25,-100,-100,-100,0,0,100,0.00,40.00,0,-999,0,0.00
2013-11-18,68,38,21,-100,-100,-100,0,0,100,0.00,40.00,0,-999,0,0.00
2013-11-19,62,44,32,-100,-100,-100,0,0,100,0.00,40.00,0,-999,0,0.00
2013-11-20,71,44,32,-100,-100,-100,0,0,100,0.00,40.00,0,-999,0,0.00
2013-11-21,44,26,21,-100,-100,-100,0,0,100,0.00,40.00,0,-999,0,0.00
2013-11-22,36,25,18,-100,-100,-100,0,0,100,0.00,40.00,0,-999,0,0.00
2013-11-23,33,26,21,-100,-100,-100,0,0,100,0.00,40.00,0,-999,0,0.00
2013-11-24,44,31,19,-100,-100,-100,0,0,100,0.00,40.00,0,-999,0,0.00
2013-11-25,51,33,23,-100,-100,-100,0,0,100,0.00,40.00,0,-999,0,0.00
2013-11-26,44,27,12,-100,-100,-100,0,0,100,0.00,40.00,0,-999,0,0.00
2013-11-27,65,27,10,-100,-100,-100,0,0,100,0.00,40.00,0,-999,0,0.00
2013-11-28,40,31,21,-100,-100,-100,0,0,100,0.00,40.00,0,-999,0,0.00
2013-11-29,50,28,17,-100,-100,-100,0,0,100,0.00,40.00,0,-999,0,0.00
2013-11-30,66,34,20,-100,-100,-100,0,0,100,0.00,40.00,0,-999,0,0.00
2013-12-1,62,34,19,-100,-100,-100,0,0,100,0.00,40.00,0,-999,0,0.00
2013-12-2,68,47,34,-100,-100,-100,0,0,100,0.00,40.00,0,-999,0,0.00
2013-12-3,48,37,28,-100,-100,-100,0,0,100,0.00,40.00,0,-999,0,0.00
2013-12-4,28,22,16,-100,-100,-100,0,0,100,0.00,40.00,0,-999,0,0.00
2013-12-5,21,13,2,-100,-100,-100,0,0,100,0.00,40.00,0,-999,0,0.00
2013-12-6,19,8,-2,-100,-100,-100,0,0,100,0.00,40.00,0,-999,0,0.00
2013-12-7,13,8,-2,-100,-100,-100,0,0,100,0.00,40.00,0,-999,0,0.00
2013-12-8,18,11,-2,-100,-100,-100,0,0,100,0.00,40.00,0,-999,0,0.00
2013-12-9,22,6,-8,-100,-100,-100,0,0,100,0.00,40.00,0,-999,0,0.00
2013-12-10,39,22,13,-100,-100,-100,0,0,100,0.00,40.00,0,-999,0,0.00
2013-12-11,35,21,7,-100,-100,-100,0,0,100,0.00,40.00,0,-999,0,0.00
2013-12-12,48,29,13,-100,-100,-100,0,0,100,0.00,40.00,0,-999,0,0.00
2013-12-13,47,28,15,-100,-100,-100,0,0,100,0.00,40.00,0,-999,0,0.00
2013-12-14,53,31,17,-100,-100,-100,0,0,100,0.00,40.00,0,-999,0,0.00
2013-12-15,61,41,27,-100,-100,-100,0,0,100,0.00,40.00,0,-999,0,0.00
2013-12-16,67,39,27,-100,-100,-100,0,0,100,0.00,40.00,0,-999,0,0.00
2013-12-17,56,36,21,-100,-100,-100,0,0,100,0.00,40.00,0,-999,0,0.00
2013-12-18,77,43,28,-100,-100,-100,0,0,100,0.00,40.00,0,-999,0,0.00
2013-12-19,43,33,18,-100,-100,-100,0,0,100,0.00,40.00,0,-999,0,0.00
2013-12-20,29,21,11,-100,-100,-100,0,0,100,0.00,40.00,0,-999,0,0.00
2013-12-21,38,21,8,-100,-100,-100,0,0,100,0.00,40.00,0,-999,0,0.00
2013-12-22,37,24,12,-100,-100,-100,0,0,100,0.00,40.00,0,-999,0,0.00
2013-12-23,23,18,12,-100,-100,-100,0,0,100,0.00,40.00,0,-999,0,0.00
2013-12-24,43,28,12,-100,-100,-100,0,0,100,0.00,40.00,0,-999,0,0.00
2013-12-25,50,32,22,-100,-100,-100,0,0,100,0.00,40.00,0,-999,0,0.00
2013-12-26,59,33,23,-100,-100,-100,0,0,100,0.00,40.00,0,-999,0,0.00
2013-12-27,65,37,21,-100,-100,-100,0,0,100,0.00,40.00,0,-999,0,0.00
2013-12-28,66,36,21,-100,-100,-100,0,0,100,0.00,40.00,0,-999,0,0.00
2013-12-29,30,18,12,-100,-100,-100,0,0,100,0.00,40.00,0,-999,0,0.00
2013-12-30,55,32,16,-100,-100,-100,0,0,100,0.00,40.00,0,-999,0,0.00
2013-12-31,63,32,15,-100,-100,-100,0,0,100,0.00,40.00,0,-999,0,0.00
2014-1-1,29,25,20,-100,-100,-100,0,0,100,0.00,40.00,0,-999,0,0.00
2014-1-2,43,27,17,-100,-100,-100,0,0,100,0.00,40.00,0,-999,0,0.00